createdAt,value
2018-06-19T00:02:38.259Z,81.87
2018-06-19T00:05:38.252Z,81.57
2018-06-19T00:08:38.184Z,80.41
2018-06-19T00:11:38.186Z,79.40
2018-06-19T00:14:38.124Z,79.60
2018-06-19T00:17:38.211Z,79.30
2018-06-19T00:20:38.052Z,79.30
2018-06-19T00:23:38.056Z,81.12
2018-06-19T00:26:37.998Z,81.37
2018-06-19T00:29:37.968Z,81.87
2018-06-19T00:32:37.919Z,82.07
2018-06-19T00:35:37.906Z,81.87
2018-06-19T00:38:37.851Z,81.30
2018-06-19T00:41:37.837Z,81.37
2018-06-19T00:44:37.778Z,80.86
2018-06-19T00:47:37.774Z,81.40
2018-06-19T00:50:37.718Z,82.01
2018-06-19T00:53:37.721Z,82.11
2018-06-19T00:56:37.692Z,81.10
2018-06-19T00:59:37.647Z,81.50
2018-06-19T01:02:37.576Z,80.69
2018-06-19T01:05:37.560Z,81.60
2018-06-19T01:09:06.809Z,80.59
2018-06-19T01:11:37.489Z,81.30
2018-06-19T01:14:37.449Z,80.29
2018-06-19T01:17:37.424Z,79.92
2018-06-19T01:20:37.376Z,79.82
2018-06-19T01:23:37.369Z,80.53
2018-06-19T01:26:37.301Z,81.13
2018-06-19T01:29:37.296Z,80.83
2018-06-19T01:32:37.243Z,81.74
2018-06-19T01:35:37.232Z,81.44
2018-06-19T01:38:37.179Z,81.74
2018-06-19T01:41:37.149Z,81.44
2018-06-19T01:44:37.108Z,81.44
2018-06-19T01:47:37.076Z,81.24
2018-06-19T01:50:37.037Z,81.13
2018-06-19T01:53:37.033Z,81.95
2018-06-19T01:56:36.966Z,82.15
2018-06-19T01:59:36.938Z,82.50
2018-06-19T02:02:36.903Z,82.59
2018-06-19T02:05:36.885Z,84.01
2018-06-19T02:08:36.835Z,83.71
2018-06-19T02:11:36.804Z,83.81
2018-06-19T02:14:36.767Z,83.61
2018-06-19T02:17:41.190Z,83.51
2018-06-19T02:20:36.696Z,83.71
2018-06-19T02:23:36.675Z,84.22
2018-06-19T02:26:36.631Z,84.52
2018-06-19T02:29:36.610Z,84.22
2018-06-19T02:32:36.563Z,84.12
2018-06-19T02:35:36.531Z,84.42
2018-06-19T02:38:36.494Z,84.93
2018-06-19T02:41:36.473Z,85.98
2018-06-19T02:44:36.427Z,85.88
2018-06-19T02:47:36.393Z,86.08
2018-06-19T02:50:36.361Z,86.15
2018-06-19T02:53:36.346Z,86.15
2018-06-19T02:56:36.292Z,85.74
2018-06-19T02:59:36.269Z,85.94
2018-06-19T03:02:36.227Z,86.25
2018-06-19T03:05:36.194Z,86.86
2018-06-19T03:08:45.214Z,87.06
2018-06-19T03:11:36.118Z,86.65
2018-06-19T03:14:36.081Z,86.86
2018-06-19T03:17:36.058Z,86.21
2018-06-19T03:20:36.007Z,86.61
2018-06-19T03:23:36.005Z,86.21
2018-06-19T03:26:35.944Z,85.46
2018-06-19T03:29:35.927Z,85.66
2018-06-19T03:32:35.869Z,86.00
2018-06-19T03:35:35.873Z,86.47
2018-06-19T03:38:35.811Z,86.10
2018-06-19T03:41:35.973Z,86.10
2018-06-19T03:44:35.736Z,85.86
2018-06-19T03:47:35.729Z,86.07
2018-06-19T03:50:35.673Z,85.01
2018-06-19T03:53:35.658Z,84.50
2018-06-19T03:56:35.612Z,84.27
2018-06-19T03:59:35.591Z,83.86
2018-06-19T04:02:35.538Z,84.12
2018-06-19T04:05:35.515Z,83.72
2018-06-19T04:08:35.482Z,83.51
2018-06-19T04:11:35.459Z,83.21
2018-06-19T04:14:35.410Z,83.51
2018-06-19T04:17:35.377Z,83.82
2018-06-19T04:20:35.348Z,83.82
2018-06-19T04:23:35.320Z,84.22
2018-06-19T04:26:35.267Z,84.33
2018-06-19T04:29:35.239Z,85.27
2018-06-19T04:32:35.200Z,85.07
2018-06-19T04:35:35.181Z,84.73
2018-06-19T04:38:35.130Z,84.87
2018-06-19T04:41:35.114Z,85.33
2018-06-19T04:44:35.065Z,85.13
2018-06-19T04:47:35.051Z,85.13
2018-06-19T04:50:35.003Z,85.24
2018-06-19T04:53:34.973Z,84.83
2018-06-19T04:56:34.926Z,85.13
2018-06-19T04:59:34.902Z,84.93
2018-06-19T05:02:34.865Z,84.93
2018-06-19T05:05:34.860Z,85.13
2018-06-19T05:08:34.792Z,84.83
2018-06-19T05:11:34.779Z,84.69
2018-06-19T05:14:34.728Z,84.25
2018-06-19T05:17:34.713Z,84.48
2018-06-19T05:20:34.673Z,84.14
2018-06-19T05:23:34.642Z,83.94
2018-06-19T05:26:34.613Z,84.14
2018-06-19T05:29:34.561Z,83.03
2018-06-19T05:32:34.542Z,83.40
2018-06-19T05:35:34.498Z,83.60
2018-06-19T05:38:34.462Z,83.50
2018-06-19T05:41:34.446Z,83.19
2018-06-19T05:44:34.378Z,83.40
2018-06-19T05:47:34.389Z,83.56
2018-06-19T05:50:34.323Z,82.85
2018-06-19T05:53:34.327Z,82.75
2018-06-19T05:56:34.255Z,82.14
2018-06-19T05:59:34.229Z,81.40
2018-06-19T06:02:34.174Z,81.60
2018-06-19T06:05:34.208Z,81.16
2018-06-19T06:08:34.127Z,81.16
2018-06-19T06:11:34.095Z,80.85
2018-06-19T06:14:34.041Z,79.50
2018-06-19T06:17:34.035Z,79.16
2018-06-19T06:20:33.974Z,79.77
2018-06-19T06:23:33.980Z,79.16
2018-06-19T06:26:33.910Z,78.83
2018-06-19T06:29:33.912Z,78.12
2018-06-19T06:32:33.841Z,78.22
2018-06-19T06:35:33.838Z,77.17
2018-06-19T06:38:33.788Z,77.68
2018-06-19T06:41:33.762Z,77.31
2018-06-19T06:44:33.727Z,77.58
2018-06-19T06:47:33.682Z,78.28
2018-06-19T06:50:33.725Z,76.74
2018-06-19T06:53:33.640Z,75.90
2018-06-19T06:56:33.575Z,74.52
2018-06-19T06:59:33.560Z,75.29
2018-06-19T07:02:33.500Z,75.70
2018-06-19T07:05:33.491Z,75.59
2018-06-19T07:08:33.445Z,75.99
2018-06-19T07:11:33.496Z,76.34
2018-06-19T07:14:33.376Z,76.20
2018-06-19T07:17:33.356Z,76.34
2018-06-19T07:20:33.308Z,76.84
2018-06-19T07:23:33.294Z,75.90
2018-06-19T07:26:33.242Z,76.40
2018-06-19T07:29:33.212Z,76.20
2018-06-19T07:32:33.174Z,77.44
2018-06-19T07:35:33.167Z,76.60
2018-06-19T07:38:33.114Z,75.79
2018-06-19T07:41:33.076Z,76.70
2018-06-19T07:44:33.044Z,76.06
2018-06-19T07:47:33.016Z,76.43
2018-06-19T07:50:32.968Z,76.36
2018-06-19T07:53:32.950Z,75.86
2018-06-19T07:56:32.902Z,76.36
2018-06-19T07:59:32.888Z,77.17
2018-06-19T08:02:32.829Z,77.17
2018-06-19T08:05:32.851Z,75.72
2018-06-19T08:08:32.764Z,75.86
2018-06-19T08:11:32.747Z,75.49
2018-06-19T08:14:32.708Z,75.59
2018-06-19T08:17:32.687Z,77.37
2018-06-19T08:20:32.630Z,79.52
2018-06-19T08:23:32.630Z,78.78
2018-06-19T08:26:32.563Z,76.53
2018-06-19T08:29:32.542Z,77.23
2018-06-19T08:32:32.515Z,77.00
2018-06-19T08:35:32.495Z,76.73
2018-06-19T08:38:32.432Z,77.29
2018-06-19T08:41:32.437Z,76.29
2018-06-19T08:44:32.385Z,77.53
2018-06-19T08:47:32.357Z,75.99
2018-06-19T08:50:32.306Z,75.99
2018-06-19T08:53:32.291Z,75.49
2018-06-19T08:56:32.263Z,76.45
2018-06-19T08:59:32.251Z,76.39
2018-06-19T09:02:32.171Z,76.49
2018-06-19T09:05:32.155Z,75.79
2018-06-19T09:08:32.104Z,75.89
2018-06-19T09:11:32.084Z,76.35
2018-06-19T09:14:32.032Z,75.08
2018-06-19T09:17:32.029Z,73.87
2018-06-19T09:20:31.964Z,74.37
2018-06-19T09:23:32.225Z,73.07
2018-06-19T09:26:31.901Z,73.24
2018-06-19T09:29:31.882Z,73.67
2018-06-19T09:32:31.836Z,75.11
2018-06-19T09:35:31.866Z,75.21
2018-06-19T09:38:33.193Z,75.11
2018-06-19T09:41:31.774Z,75.27
2018-06-19T09:44:31.718Z,71.66
2018-06-19T09:47:32.011Z,70.62
2018-06-19T09:50:31.636Z,71.66
2018-06-19T09:53:31.665Z,70.96
2018-06-19T09:56:31.586Z,72.90
2018-06-19T09:59:31.611Z,69.46
2018-06-19T10:02:31.506Z,67.96
2018-06-19T10:05:31.489Z,65.03
2018-06-19T10:08:32.752Z,65.17
2018-06-19T10:11:31.429Z,66.16
2018-06-19T10:14:31.401Z,65.23
2018-06-19T10:17:31.358Z,63.07
2018-06-19T10:20:31.345Z,63.83
2018-06-19T10:23:31.312Z,66.89
2018-06-19T10:26:31.250Z,64.07
2018-06-19T10:29:31.268Z,62.85
2018-06-19T10:32:31.232Z,60.79
2018-06-19T10:35:31.166Z,66.43
2018-06-19T10:38:31.124Z,66.23
2018-06-19T10:41:31.105Z,63.94
2018-06-19T10:44:31.088Z,62.78
2018-06-19T10:47:34.578Z,60.63
2018-06-19T10:50:30.999Z,62.08
2018-06-19T10:53:30.979Z,62.38
2018-06-19T10:56:33.715Z,62.01
2018-06-19T10:59:30.933Z,60.46
2018-06-19T11:02:30.872Z,58.69
2018-06-19T11:05:30.848Z,60.08
2018-06-19T11:08:32.246Z,59.52
2018-06-19T11:11:30.792Z,57.56
2018-06-19T11:14:30.742Z,60.24
2018-06-19T11:17:30.722Z,62.08
2018-06-19T11:20:30.679Z,62.48
2018-06-19T11:23:30.677Z,60.53
2018-06-19T11:26:30.618Z,56.98
2018-06-19T11:29:30.597Z,58.06
2018-06-19T11:32:30.562Z,60.96
2018-06-19T11:35:30.532Z,62.31
2018-06-19T11:38:37.476Z,63.47
2018-06-19T11:41:30.466Z,62.64
2018-06-19T11:44:30.434Z,63.77
2018-06-19T11:47:32.845Z,64.27
2018-06-19T11:50:30.364Z,64.20
2018-06-19T11:53:30.338Z,63.27
2018-06-19T11:56:37.199Z,64.60
2018-06-19T11:59:30.272Z,65.33
2018-06-19T12:02:30.228Z,65.10
2018-06-19T12:05:30.205Z,64.83
2018-06-19T12:08:30.166Z,62.97
2018-06-19T12:11:30.137Z,61.71
2018-06-19T12:14:30.095Z,61.06
2018-06-19T12:17:30.077Z,58.76
2018-06-19T12:20:30.029Z,59.66
2018-06-19T12:23:30.033Z,59.94
2018-06-19T12:26:29.964Z,60.59
2018-06-19T12:29:29.953Z,60.65
2018-06-19T12:32:29.911Z,64.14
2018-06-19T12:35:29.879Z,61.22
2018-06-19T12:38:47.477Z,64.77
2018-06-19T12:41:29.818Z,66.56
2018-06-19T12:44:29.776Z,66.16
2018-06-19T12:47:29.766Z,64.80
2018-06-19T12:50:29.725Z,62.15
2018-06-19T12:53:29.682Z,61.61
2018-06-19T12:56:29.644Z,62.57
2018-06-19T12:59:29.628Z,63.14
2018-06-19T13:02:29.577Z,64.84
2018-06-19T13:05:29.564Z,64.00
2018-06-19T13:08:29.592Z,64.47
2018-06-19T13:11:29.482Z,64.57
2018-06-19T13:14:29.447Z,65.60
2018-06-19T13:17:43.961Z,68.26
2018-06-19T13:20:29.370Z,68.82
2018-06-19T13:23:29.361Z,70.36
2018-06-19T13:26:29.308Z,71.80
2018-06-19T13:29:29.303Z,73.40
2018-06-19T13:32:29.251Z,73.94
2018-06-19T13:35:29.293Z,73.30
2018-06-19T13:38:29.177Z,72.03
2018-06-19T13:41:29.146Z,70.76
2018-06-19T13:44:29.113Z,68.39
2018-06-19T13:47:29.080Z,66.73
2018-06-19T13:50:29.064Z,64.87
2018-06-19T13:53:29.021Z,63.47
2018-06-19T13:56:28.973Z,63.74
2018-06-19T13:59:28.964Z,59.91
2018-06-19T14:02:28.908Z,59.68
2018-06-19T14:05:28.895Z,59.48
2018-06-19T14:08:28.838Z,56.93
2018-06-19T14:11:28.889Z,57.75
2018-06-19T14:14:28.825Z,52.69
2018-06-19T14:17:34.519Z,49.44
2018-06-19T14:20:28.767Z,48.58
2018-06-19T14:23:28.751Z,46.07
2018-06-19T14:26:28.668Z,46.96
2018-06-19T14:29:28.651Z,47.69
2018-06-19T14:32:28.611Z,50.88
2018-06-19T14:35:28.583Z,52.31
2018-06-19T14:38:51.823Z,52.12
2018-06-19T14:41:28.544Z,55.59
2018-06-19T14:44:28.475Z,56.41
2018-06-19T14:47:28.453Z,57.49
2018-06-19T14:50:28.431Z,57.26
2018-06-19T14:53:28.395Z,60.83
2018-06-19T14:56:28.380Z,58.78
2018-06-19T14:59:28.327Z,58.48
2018-06-19T15:02:28.303Z,59.91
2018-06-19T15:05:28.263Z,56.87
2018-06-19T15:08:44.083Z,56.34
2018-06-19T15:11:28.245Z,57.99
2018-06-19T15:14:28.154Z,58.31
2018-06-19T15:17:28.148Z,58.31
2018-06-19T15:20:28.091Z,58.31
2018-06-19T15:23:28.077Z,58.48
2018-06-19T15:26:28.024Z,58.69
2018-06-19T15:29:28.004Z,57.79
2018-06-19T15:32:28.010Z,58.61
2018-06-19T15:35:27.975Z,57.69
2018-06-19T15:38:27.901Z,60.00
2018-06-19T15:41:27.884Z,60.13
2018-06-19T15:44:27.829Z,60.22
2018-06-19T15:47:27.811Z,61.55
2018-06-19T15:50:27.759Z,63.97
2018-06-19T15:53:27.757Z,63.87
2018-06-19T15:56:27.698Z,64.47
2018-06-19T15:59:27.678Z,64.37
2018-06-19T16:02:27.641Z,63.44
2018-06-19T16:05:27.614Z,63.60
2018-06-19T16:08:27.565Z,62.40
2018-06-19T16:11:27.557Z,62.67
2018-06-19T16:14:27.495Z,62.81
2018-06-19T16:17:27.496Z,62.30
2018-06-19T16:20:27.434Z,62.57
2018-06-19T16:23:27.423Z,62.18
2018-06-19T16:26:27.376Z,62.87
2018-06-19T16:29:27.967Z,62.15
2018-06-19T16:32:27.324Z,63.77
2018-06-19T16:35:27.283Z,64.50
2018-06-19T16:38:27.231Z,65.03
2018-06-19T16:41:27.206Z,66.13
2018-06-19T16:44:27.165Z,65.93
2018-06-19T16:47:28.486Z,66.86
2018-06-19T16:50:27.106Z,67.49
2018-06-19T16:53:27.074Z,67.59
2018-06-19T16:56:27.036Z,66.59
2018-06-19T16:59:27.019Z,65.46
2018-06-19T17:02:26.965Z,65.56
2018-06-19T17:05:26.951Z,65.59
2018-06-19T17:08:26.903Z,66.19
2018-06-19T17:11:26.888Z,66.39
2018-06-19T17:14:26.829Z,66.72
2018-06-19T17:17:26.813Z,66.79
2018-06-19T17:20:26.779Z,67.02
2018-06-19T17:23:26.753Z,66.39
2018-06-19T17:26:26.705Z,66.59
2018-06-19T17:29:26.682Z,66.99
2018-06-19T17:32:26.624Z,66.19
2018-06-19T17:35:26.628Z,66.29
2018-06-19T17:38:26.575Z,66.39
2018-06-19T17:41:26.566Z,65.76
2018-06-19T17:44:26.490Z,66.89
2018-06-19T17:47:27.503Z,66.39
2018-06-19T17:50:26.438Z,67.09
2018-06-19T17:53:26.401Z,67.32
2018-06-19T17:56:26.371Z,68.55
2018-06-19T17:59:26.342Z,69.26
2018-06-19T18:02:26.319Z,68.93
2018-06-19T18:05:26.277Z,68.82
2018-06-19T18:08:26.245Z,68.93
2018-06-19T18:11:26.218Z,68.82
2018-06-19T18:14:26.164Z,68.16
2018-06-19T18:17:26.137Z,69.26
2018-06-19T18:20:26.118Z,69.06
2018-06-19T18:23:26.089Z,69.29
2018-06-19T18:26:26.052Z,69.29
2018-06-19T18:29:25.998Z,70.53
2018-06-19T18:32:25.973Z,70.73
2018-06-19T18:35:25.951Z,72.03
2018-06-19T18:38:25.912Z,71.63
2018-06-19T18:41:25.891Z,71.86
2018-06-19T18:44:25.824Z,71.46
2018-06-19T18:47:25.840Z,71.56
2018-06-19T18:50:25.771Z,71.56
2018-06-19T18:53:25.746Z,71.96
2018-06-19T18:56:25.689Z,71.66
2018-06-19T18:59:25.662Z,70.96
2018-06-19T19:02:25.630Z,71.26
2018-06-19T19:05:25.612Z,71.70
2018-06-19T19:08:25.555Z,72.09
2018-06-19T19:11:25.563Z,71.90
2018-06-19T19:14:25.490Z,72.60
2018-06-19T19:17:25.510Z,72.80
2018-06-19T19:20:25.442Z,73.13
2018-06-19T19:23:25.400Z,73.54
2018-06-19T19:26:25.357Z,73.84
2018-06-19T19:29:25.388Z,73.74
2018-06-19T19:32:25.335Z,74.44
2018-06-19T19:35:25.284Z,74.34
2018-06-19T19:38:25.238Z,75.18
2018-06-19T19:41:25.196Z,75.08
2018-06-19T19:44:25.189Z,75.08
2018-06-19T19:47:52.758Z,75.38
2018-06-19T19:50:25.078Z,75.58
2018-06-19T19:53:25.061Z,75.48
2018-06-19T19:56:25.008Z,75.01
2018-06-19T19:59:25.495Z,75.01
2018-06-19T20:02:24.952Z,75.92
2018-06-19T20:05:24.945Z,76.12
2018-06-19T20:08:24.885Z,76.02
2018-06-19T20:11:24.875Z,76.52
2018-06-19T20:14:24.812Z,76.32
2018-06-19T20:17:24.832Z,76.21
2018-06-19T20:20:24.779Z,76.05
2018-06-19T20:23:24.724Z,76.05
2018-06-19T20:26:24.694Z,76.15
2018-06-19T20:29:24.677Z,76.21
2018-06-19T20:32:24.609Z,76.05
2018-06-19T20:35:24.622Z,75.65
2018-06-19T20:38:24.563Z,75.85
2018-06-19T20:41:24.554Z,76.05
2018-06-19T20:44:24.480Z,75.75
2018-06-19T20:47:24.455Z,75.85
2018-06-19T20:50:24.493Z,75.95
2018-06-19T20:53:24.386Z,76.96
2018-06-19T20:56:24.331Z,76.65
2018-06-19T20:59:24.326Z,77.06
2018-06-19T21:02:24.269Z,77.29
2018-06-19T21:05:24.279Z,77.90
2018-06-19T21:08:24.215Z,78.50
2018-06-19T21:11:24.180Z,78.30
2018-06-19T21:14:24.125Z,78.50
2018-06-19T21:17:24.117Z,79.21
2018-06-19T21:20:24.054Z,79.81
2018-06-19T21:23:24.049Z,79.10
2018-06-19T21:26:24.011Z,78.90
2018-06-19T21:29:23.991Z,78.64
2018-06-19T21:32:23.923Z,78.60
2018-06-19T21:35:23.920Z,78.70
2018-06-19T21:38:23.865Z,79.24
2018-06-19T21:41:23.841Z,79.24
2018-06-19T21:44:23.786Z,78.64
2018-06-19T21:47:23.778Z,78.74
2018-06-19T21:50:23.729Z,79.24
2018-06-19T21:53:23.734Z,79.35
2018-06-19T21:56:23.651Z,79.35
2018-06-19T21:59:23.649Z,78.80
2018-06-19T22:02:23.606Z,78.54
2018-06-19T22:05:23.572Z,79.54
2018-06-19T22:08:23.519Z,78.84
2018-06-19T22:11:23.511Z,78.74
2018-06-19T22:14:23.456Z,78.84
2018-06-19T22:17:23.443Z,79.64
2018-06-19T22:20:23.381Z,79.64
2018-06-19T22:23:23.382Z,79.35
2018-06-19T22:26:23.326Z,78.80
2018-06-19T22:29:23.298Z,79.41
2018-06-19T22:32:23.947Z,79.61
2018-06-19T22:35:23.241Z,79.04
2018-06-19T22:38:23.296Z,79.24
2018-06-19T22:41:23.163Z,79.61
2018-06-19T22:44:23.108Z,81.26
2018-06-19T22:47:23.097Z,80.25
2018-06-19T22:50:23.069Z,81.46
2018-06-19T22:53:23.031Z,81.76
2018-06-19T22:56:22.971Z,81.99
2018-06-19T22:59:22.972Z,81.59
2018-06-19T23:02:22.926Z,82.70
2018-06-19T23:05:22.941Z,82.70
2018-06-19T23:08:22.838Z,82.54
2018-06-19T23:11:22.829Z,82.70
2018-06-19T23:14:22.782Z,82.74
2018-06-19T23:17:22.767Z,82.80
2018-06-19T23:20:22.697Z,83.00
2018-06-19T23:23:22.768Z,82.74
2018-06-19T23:26:22.642Z,83.14
2018-06-19T23:29:22.621Z,82.84
2018-06-19T23:32:23.453Z,82.84
2018-06-19T23:35:22.563Z,83.25
2018-06-19T23:38:22.493Z,83.04
2018-06-19T23:41:22.477Z,83.25
2018-06-19T23:44:22.460Z,83.54
2018-06-19T23:47:22.424Z,83.14
2018-06-19T23:50:22.367Z,83.65
2018-06-19T23:53:22.351Z,84.25
2018-06-19T23:56:22.301Z,84.15
2018-06-19T23:59:22.302Z,83.45
